Szafir — 5BFC3 — position and weather

sailwx.info

Track history (hours):
 
Tides and Currents Weather Stations Pressure Air Temp Water Temp Dewpoint Dewpoint Depression Visibility Wind Speed Wind Dir Waves Ship Positions

Szafir

Last reported at 2017-Apr-30 06:25 UTC. Time now 2017-Apr-30 08:47 UTC.
Position N 38°45' W 010°20'.

Length 113 m; draft 8.5 m.

Type: Ship. MMSI: 209366000.

Date/timePositionNaut miles runAvg speedWind from/ knotsBaromVisibWave heightAir tempDewpointWater temp
2017-Apr-30 06:25N 38°45' W 010°20'  
2017-Apr-27 18:42N 49°42' W 003°51'210.9
2017-Apr-27 18:30N 49°43' W 003°48'510.8
2017-Apr-27 18:00N 49°45' W 003°41'610.9
2017-Apr-27 17:30N 49°48' W 003°33'611.1
2017-Apr-27 17:00N 49°50' W 003°25'611.9
2017-Apr-27 16:31N 49°53' W 003°17'612.7
2017-Apr-27 16:00N 49°56' W 003°08'713.8
2017-Apr-27 15:30N 49°59' W 002°58'714.7
2017-Apr-27 15:01N 50°01' W 002°48'9712.5
2017-Apr-27 07:19N 50°28' W 000°23'411.6
2017-Apr-27 07:00N 50°29' W 000°17'612.4
2017-Apr-27 06:30N 50°31' W 000°08'713.3
2017-Apr-27 06:00N 50°32' E 000°02'714.1
2017-Apr-27 05:30N 50°34' E 000°13'814.4
2017-Apr-27 04:57N 50°36' E 000°25'614.5
2017-Apr-27 04:30N 50°38' E 000°35'714.5
2017-Apr-27 04:00N 50°42' E 000°44'714.1
2017-Apr-27 03:30N 50°47' E 000°53'713.4
2017-Apr-27 02:57N 50°51' E 001°02'612.8
2017-Apr-27 02:27N 50°55' E 001°10'512.1
2017-Apr-27 02:00N 50°59' E 001°17'511.0
2017-Apr-27 01:30N 51°02' E 001°23'510.3
2017-Apr-27 01:00N 51°05' E 001°30'5 9.9
2017-Apr-27 00:30N 51°09' E 001°36'510.3
2017-Apr-27 00:00N 51°12' E 001°42'510.7
2017-Apr-26 23:30N 51°16' E 001°47'612.3
2017-Apr-26 23:00N 51°22' E 001°51'713.3
2017-Apr-26 22:31N 51°27' E 001°57'714.4
2017-Apr-26 22:01N 51°32' E 002°05'814.7
2017-Apr-26 21:30N 51°38' E 002°14'22812.7
2017-Apr-26 03:31N 54°48' E 005°43'012.4
2017-Apr-26 03:29N 54°49' E 005°43'612.5
2017-Apr-26 02:58N 54°54' E 005°49'612.5
2017-Apr-26 02:29N 54°59' E 005°55'612.5
2017-Apr-26 02:00N 55°04' E 006°00'22112.0
2017-Apr-25 07:33N 57°49' E 010°28'410.8
2017-Apr-25 07:11N 57°49' E 010°36'210.4
2017-Apr-25 06:59N 57°49' E 010°39'5 9.8
2017-Apr-25 06:30N 57°47' E 010°48'611.3
2017-Apr-25 06:00N 57°43' E 010°55'611.1
2017-Apr-25 05:30N 57°39' E 011°03'511.0
2017-Apr-25 05:00N 57°36' E 011°10'510.6
2017-Apr-25 04:30N 57°32' E 011°18'510.4
2017-Apr-25 03:59N 57°28' E 011°25'610.5
2017-Apr-25 03:26N 57°23' E 011°29'510.6
2017-Apr-25 03:00N 57°19' E 011°33'510.3
2017-Apr-25 02:30N 57°14' E 011°36'510.3
2017-Apr-25 01:59N 57°09' E 011°39'510.0
2017-Apr-25 01:30N 57°05' E 011°43'10710.2
2017-Apr-24 14:58N 55°20' E 011°02'510.3
2017-Apr-24 14:27N 55°15' E 011°06'1010.6
2017-Apr-24 13:30N 55°05' E 011°03'612.3
2017-Apr-24 13:00N 54°59' E 011°01'612.8
2017-Apr-24 12:30N 54°54' E 010°54'612.7
2017-Apr-24 12:00N 54°47' E 010°53'611.2
2017-Apr-24 11:30N 54°42' E 010°55'611.4
2017-Apr-24 11:00N 54°39' E 011°03'611.6
2017-Apr-24 10:30N 54°36' E 011°12'611.4
2017-Apr-24 10:00N 54°34' E 011°20'611.5
2017-Apr-24 09:30N 54°31' E 011°30'611.2
2017-Apr-24 09:00N 54°29' E 011°38'510.4
2017-Apr-24 08:30N 54°27' E 011°46'1010.5
2017-Apr-24 07:32N 54°27' E 012°04'010.4
2017-Apr-24 07:30N 54°27' E 012°04'5 9.6
2017-Apr-24 07:00N 54°29' E 012°11'611.1
2017-Apr-24 06:30N 54°35' E 012°14'510.5
2017-Apr-24 06:00N 54°39' E 012°20'8911.4
2017-Apr-23 22:11N 54°40' E 014°54'212.6
2017-Apr-23 22:00N 54°41' E 014°58'612.6
2017-Apr-23 21:30N 54°42' E 015°08'10811.9
2017-Apr-23 12:25N 54°57' E 018°14'511.6
2017-Apr-23 11:59N 54°57' E 018°23'611.8
2017-Apr-23 11:30N 54°57' E 018°33'611.4
2017-Apr-23 11:00N 54°54' E 018°40'611.8
2017-Apr-23 10:30N 54°50' E 018°49'612.3
2017-Apr-23 10:00N 54°47' E 018°58'611.1
2017-Apr-23 09:30N 54°41' E 018°58'612.2
2017-Apr-23 09:00N 54°35' E 018°54'612.2
2017-Apr-23 08:30N 54°32' E 018°46'611.8
2017-Apr-23 08:00N 54°32' E 018°35'2 4.1
2017-Apr-23 07:29N 54°32' E 018°32'0 0.0
2017-Apr-23 06:59N 54°32' E 018°32'0 0.0
2017-Apr-23 06:29N 54°32' E 018°32'0 0.0
2017-Apr-23 05:59N 54°32' E 018°32'0 0.0
2017-Apr-23 05:29N 54°32' E 018°32'0 0.0
2017-Apr-23 04:59N 54°32' E 018°32'0 0.0
2017-Apr-23 04:29N 54°32' E 018°32'0 0.0
2017-Apr-23 03:59N 54°32' E 018°32'0 0.0
2017-Apr-23 03:29N 54°32' E 018°32'0 0.0
2017-Apr-23 02:59N 54°32' E 018°32'0 0.0
2017-Apr-23 02:29N 54°32' E 018°32'0 0.0
2017-Apr-23 01:59N 54°32' E 018°32'0 0.0
2017-Apr-23 01:29N 54°32' E 018°32'0 0.0
2017-Apr-23 00:56N 54°32' E 018°32'0 0.0
2017-Apr-23 00:29N 54°32' E 018°32'0 0.0
2017-Apr-22 23:59N 54°32' E 018°32'0 0.0
2017-Apr-22 23:29N 54°32' E 018°32'0 0.0
2017-Apr-22 22:59N 54°32' E 018°32'0 0.0
2017-Apr-22 22:29N 54°32' E 018°32'0 0.0
2017-Apr-22 21:59N 54°32' E 018°32'0 0.0
2017-Apr-22 21:29N 54°32' E 018°32'0 0.0
2017-Apr-22 20:59N 54°32' E 018°32'0 0.0
2017-Apr-22 20:29N 54°32' E 018°32'0 0.0
2017-Apr-22 19:59N 54°32' E 018°32'0 0.0
2017-Apr-22 19:29N 54°32' E 018°32'0 0.0
2017-Apr-22 18:59N 54°32' E 018°32'0 0.0
2017-Apr-22 18:29N 54°32' E 018°32'0 0.0
2017-Apr-22 17:59N 54°32' E 018°32'0 0.0
2017-Apr-22 17:29N 54°32' E 018°32'0 0.0
2017-Apr-22 16:59N 54°32' E 018°32'0 0.0
2017-Apr-22 16:29N 54°32' E 018°32'0 0.0
2017-Apr-22 15:59N 54°32' E 018°32'0 0.0
2017-Apr-22 15:29N 54°32' E 018°32'0 0.0
2017-Apr-22 14:59N 54°32' E 018°32'0 0.0
2017-Apr-22 14:29N 54°32' E 018°32'0 0.0
2017-Apr-22 13:29N 54°32' E 018°32'0 0.0
2017-Apr-22 12:59N 54°32' E 018°32'0 0.0
2017-Apr-22 12:29N 54°32' E 018°32'0 0.0
2017-Apr-22 11:59N 54°32' E 018°32'0 0.0
2017-Apr-22 11:29N 54°32' E 018°32'0 0.0
2017-Apr-22 10:59N 54°32' E 018°32'0 0.0
2017-Apr-22 10:29N 54°32' E 018°32'0 0.0
2017-Apr-22 09:59N 54°32' E 018°32'0 0.0
2017-Apr-22 09:29N 54°32' E 018°32'0 0.0
2017-Apr-22 08:59N 54°32' E 018°32'0 0.0
2017-Apr-22 08:29N 54°32' E 018°32'0 0.0
2017-Apr-22 07:59N 54°32' E 018°32'0 0.0
2017-Apr-22 07:29N 54°32' E 018°32'0 0.0
2017-Apr-22 06:59N 54°32' E 018°32'0 0.0
2017-Apr-22 06:29N 54°32' E 018°32'0 0.0
2017-Apr-22 05:59N 54°32' E 018°32'0 0.0
2017-Apr-22 05:29N 54°32' E 018°32'0 0.0
2017-Apr-22 04:59N 54°32' E 018°32'0 0.0
2017-Apr-22 04:29N 54°32' E 018°32'0 0.0
2017-Apr-22 03:59N 54°32' E 018°32'0 0.0
2017-Apr-22 03:29N 54°32' E 018°32'0 0.0
2017-Apr-22 02:59N 54°32' E 018°32'0 0.0
2017-Apr-22 02:29N 54°32' E 018°32'0 0.0
2017-Apr-22 01:59N 54°32' E 018°32'0 0.0
2017-Apr-22 01:29N 54°32' E 018°32'0 0.0
2017-Apr-22 00:59N 54°32' E 018°32'0 0.0
2017-Apr-22 00:29N 54°32' E 018°32'0 0.0
2017-Apr-21 23:59N 54°32' E 018°32'0 0.0
2017-Apr-21 23:29N 54°32' E 018°32'0 0.0
2017-Apr-21 22:59N 54°32' E 018°32'0 0.0
2017-Apr-21 22:29N 54°32' E 018°32'0 0.0
2017-Apr-21 21:59N 54°32' E 018°32'0 0.0
2017-Apr-21 21:29N 54°32' E 018°32'0 0.0
2017-Apr-21 20:59N 54°32' E 018°32'0 0.0
2017-Apr-21 20:29N 54°32' E 018°32'0 0.0
2017-Apr-21 19:59N 54°32' E 018°32'0 0.0
2017-Apr-21 19:29N 54°32' E 018°32'0 0.0
2017-Apr-21 18:59N 54°32' E 018°32'0 0.0
2017-Apr-21 18:29N 54°32' E 018°32'0 0.0
2017-Apr-21 17:59N 54°32' E 018°32'0 0.0
2017-Apr-21 17:29N 54°32' E 018°32'0 0.0
2017-Apr-21 16:59N 54°32' E 018°32'0 0.0
2017-Apr-21 16:29N 54°32' E 018°32'0 0.0
2017-Apr-21 15:59N 54°32' E 018°32'0 0.0
2017-Apr-21 15:29N 54°32' E 018°32'0 0.0
2017-Apr-21 14:59N 54°32' E 018°32'0 0.0
2017-Apr-21 14:29N 54°32' E 018°32'0 0.0
2017-Apr-21 13:29N 54°32' E 018°32'0 0.0
2017-Apr-21 12:59N 54°32' E 018°32'0 0.0
2017-Apr-21 12:29N 54°32' E 018°32'0 0.0
2017-Apr-21 11:59N 54°32' E 018°32'0 0.0
2017-Apr-21 11:29N 54°32' E 018°32'0 0.0
2017-Apr-21 10:59N 54°32' E 018°32'0 0.0
2017-Apr-21 10:29N 54°32' E 018°32'0 0.2
2017-Apr-21 09:59N 54°32' E 018°32'0 0.4
2017-Apr-21 09:29N 54°32' E 018°31'0 0.0
2017-Apr-21 08:59N 54°32' E 018°31'0 0.0
2017-Apr-21 08:29N 54°32' E 018°31'0 0.0
2017-Apr-21 07:50N 54°32' E 018°31'0 0.0
2017-Apr-21 07:29N 54°32' E 018°31'0 0.0
2017-Apr-21 06:56N 54°32' E 018°31'0 0.0
2017-Apr-21 06:26N 54°32' E 018°31'0 0.0
2017-Apr-21 05:53N 54°32' E 018°31'0 0.0
2017-Apr-21 05:29N 54°32' E 018°31'0 0.0
2017-Apr-21 04:59N 54°32' E 018°31'0 0.0
2017-Apr-21 04:29N 54°32' E 018°31'0 0.0
2017-Apr-21 03:56N 54°32' E 018°31'0 0.0
2017-Apr-21 03:26N 54°32' E 018°31'0 0.0
2017-Apr-21 02:59N 54°32' E 018°31'0 0.0
2017-Apr-21 02:29N 54°32' E 018°31'0 0.0
2017-Apr-21 01:59N 54°32' E 018°31'0 0.0
2017-Apr-21 01:29N 54°32' E 018°31'0 0.0
2017-Apr-21 00:56N 54°32' E 018°31'0 0.0
2017-Apr-21 00:29N 54°32' E 018°31'0 0.0
2017-Apr-20 23:59N 54°32' E 018°31'0 0.0
2017-Apr-20 23:29N 54°32' E 018°31'0 0.0
2017-Apr-20 22:59N 54°32' E 018°31'0 0.0
2017-Apr-20 22:26N 54°32' E 018°31'0 0.0
2017-Apr-20 21:59N 54°32' E 018°31'0 0.0
2017-Apr-20 21:29N 54°32' E 018°31'0 0.0
2017-Apr-20 20:50N 54°32' E 018°31'0 0.0
2017-Apr-20 20:29N 54°32' E 018°31'0 0.0
2017-Apr-20 19:53N 54°32' E 018°31'0 0.0
2017-Apr-20 19:29N 54°32' E 018°31'0 0.0
2017-Apr-20 18:59N 54°32' E 018°31'0 0.0
2017-Apr-20 18:29N 54°32' E 018°31'0 0.0
2017-Apr-20 17:59N 54°32' E 018°31'0 0.0
2017-Apr-20 17:26N 54°32' E 018°31'0 0.0
2017-Apr-20 16:56N 54°32' E 018°31'0 0.0
2017-Apr-20 16:29N 54°32' E 018°31'0 0.0
2017-Apr-20 15:59N 54°32' E 018°31'0 0.0
2017-Apr-20 15:29N 54°32' E 018°31'0 0.0
2017-Apr-20 14:59N 54°32' E 018°31'0 0.0
2017-Apr-20 14:29N 54°32' E 018°31'0 0.0
2017-Apr-20 13:29N 54°32' E 018°31'0 0.0
2017-Apr-20 12:59N 54°32' E 018°31'0 0.0
2017-Apr-20 12:29N 54°32' E 018°31'0 0.0
2017-Apr-20 11:59N 54°32' E 018°31'0 0.0
2017-Apr-20 11:29N 54°32' E 018°31'0 0.0
2017-Apr-20 10:59N 54°32' E 018°31'0 0.0
2017-Apr-20 10:29N 54°32' E 018°31'0 0.0
2017-Apr-20 09:59N 54°32' E 018°31'0 0.0
2017-Apr-20 09:29N 54°32' E 018°31'0 0.0
2017-Apr-20 08:59N 54°32' E 018°31'0 0.0
2017-Apr-20 08:29N 54°32' E 018°31'0 0.0
2017-Apr-20 07:59N 54°32' E 018°31'0 0.0
2017-Apr-20 07:29N 54°32' E 018°31'0 0.0
2017-Apr-20 06:59N 54°32' E 018°31'0 0.0
2017-Apr-20 06:29N 54°32' E 018°31'  
Track history (hours):
 
Tides and Currents Weather Stations Pressure Air Temp Water Temp Dewpoint Dewpoint Depression Visibility Wind Speed Wind Dir Waves Ship Positions

Szafir

Last reported at 2017-Apr-30 06:25 UTC. Time now 2017-Apr-30 08:47 UTC.
Position N 38°45' W 010°20'.

Length 113 m; draft 8.5 m.

Type: Ship. MMSI: 209366000.

Date/timePositionNaut miles runAvg speedWind from/ knotsBaromVisibWave heightAir tempDewpointWater temp
2017-Apr-30 06:25N 38°45' W 010°20'  
2017-Apr-27 18:42N 49°42' W 003°51'210.9
2017-Apr-27 18:30N 49°43' W 003°48'510.8
2017-Apr-27 18:00N 49°45' W 003°41'610.9
2017-Apr-27 17:30N 49°48' W 003°33'611.1
2017-Apr-27 17:00N 49°50' W 003°25'611.9
2017-Apr-27 16:31N 49°53' W 003°17'612.7
2017-Apr-27 16:00N 49°56' W 003°08'713.8
2017-Apr-27 15:30N 49°59' W 002°58'714.7
2017-Apr-27 15:01N 50°01' W 002°48'9712.5
2017-Apr-27 07:19N 50°28' W 000°23'411.6
2017-Apr-27 07:00N 50°29' W 000°17'612.4
2017-Apr-27 06:30N 50°31' W 000°08'713.3
2017-Apr-27 06:00N 50°32' E 000°02'714.1
2017-Apr-27 05:30N 50°34' E 000°13'814.4
2017-Apr-27 04:57N 50°36' E 000°25'614.5
2017-Apr-27 04:30N 50°38' E 000°35'714.5
2017-Apr-27 04:00N 50°42' E 000°44'714.1
2017-Apr-27 03:30N 50°47' E 000°53'713.4
2017-Apr-27 02:57N 50°51' E 001°02'612.8
2017-Apr-27 02:27N 50°55' E 001°10'512.1
2017-Apr-27 02:00N 50°59' E 001°17'511.0
2017-Apr-27 01:30N 51°02' E 001°23'510.3
2017-Apr-27 01:00N 51°05' E 001°30'5 9.9
2017-Apr-27 00:30N 51°09' E 001°36'510.3
2017-Apr-27 00:00N 51°12' E 001°42'510.7
2017-Apr-26 23:30N 51°16' E 001°47'612.3
2017-Apr-26 23:00N 51°22' E 001°51'713.3
2017-Apr-26 22:31N 51°27' E 001°57'714.4
2017-Apr-26 22:01N 51°32' E 002°05'814.7
2017-Apr-26 21:30N 51°38' E 002°14'22812.7
2017-Apr-26 03:31N 54°48' E 005°43'012.4
2017-Apr-26 03:29N 54°49' E 005°43'612.5
2017-Apr-26 02:58N 54°54' E 005°49'612.5
2017-Apr-26 02:29N 54°59' E 005°55'612.5
2017-Apr-26 02:00N 55°04' E 006°00'22112.0
2017-Apr-25 07:33N 57°49' E 010°28'410.8
2017-Apr-25 07:11N 57°49' E 010°36'210.4
2017-Apr-25 06:59N 57°49' E 010°39'5 9.8
2017-Apr-25 06:30N 57°47' E 010°48'611.3
2017-Apr-25 06:00N 57°43' E 010°55'611.1
2017-Apr-25 05:30N 57°39' E 011°03'511.0
2017-Apr-25 05:00N 57°36' E 011°10'510.6
2017-Apr-25 04:30N 57°32' E 011°18'510.4
2017-Apr-25 03:59N 57°28' E 011°25'610.5
2017-Apr-25 03:26N 57°23' E 011°29'510.6
2017-Apr-25 03:00N 57°19' E 011°33'510.3
2017-Apr-25 02:30N 57°14' E 011°36'510.3
2017-Apr-25 01:59N 57°09' E 011°39'510.0
2017-Apr-25 01:30N 57°05' E 011°43'10710.2
2017-Apr-24 14:58N 55°20' E 011°02'510.3
2017-Apr-24 14:27N 55°15' E 011°06'1010.6
2017-Apr-24 13:30N 55°05' E 011°03'612.3
2017-Apr-24 13:00N 54°59' E 011°01'612.8
2017-Apr-24 12:30N 54°54' E 010°54'612.7
2017-Apr-24 12:00N 54°47' E 010°53'611.2
2017-Apr-24 11:30N 54°42' E 010°55'611.4
2017-Apr-24 11:00N 54°39' E 011°03'611.6
2017-Apr-24 10:30N 54°36' E 011°12'611.4
2017-Apr-24 10:00N 54°34' E 011°20'611.5
2017-Apr-24 09:30N 54°31' E 011°30'611.2
2017-Apr-24 09:00N 54°29' E 011°38'510.4
2017-Apr-24 08:30N 54°27' E 011°46'1010.5
2017-Apr-24 07:32N 54°27' E 012°04'010.4
2017-Apr-24 07:30N 54°27' E 012°04'5 9.6
2017-Apr-24 07:00N 54°29' E 012°11'611.1
2017-Apr-24 06:30N 54°35' E 012°14'510.5
2017-Apr-24 06:00N 54°39' E 012°20'8911.4
2017-Apr-23 22:11N 54°40' E 014°54'212.6
2017-Apr-23 22:00N 54°41' E 014°58'612.6
2017-Apr-23 21:30N 54°42' E 015°08'10811.9
2017-Apr-23 12:25N 54°57' E 018°14'511.6
2017-Apr-23 11:59N 54°57' E 018°23'611.8
2017-Apr-23 11:30N 54°57' E 018°33'611.4
2017-Apr-23 11:00N 54°54' E 018°40'611.8
2017-Apr-23 10:30N 54°50' E 018°49'612.3
2017-Apr-23 10:00N 54°47' E 018°58'611.1
2017-Apr-23 09:30N 54°41' E 018°58'612.2
2017-Apr-23 09:00N 54°35' E 018°54'612.2
2017-Apr-23 08:30N 54°32' E 018°46'611.8
2017-Apr-23 08:00N 54°32' E 018°35'2 4.1
2017-Apr-23 07:29N 54°32' E 018°32'0 0.0
2017-Apr-23 06:59N 54°32' E 018°32'0 0.0
2017-Apr-23 06:29N 54°32' E 018°32'0 0.0
2017-Apr-23 05:59N 54°32' E 018°32'0 0.0
2017-Apr-23 05:29N 54°32' E 018°32'0 0.0
2017-Apr-23 04:59N 54°32' E 018°32'0 0.0
2017-Apr-23 04:29N 54°32' E 018°32'0 0.0
2017-Apr-23 03:59N 54°32' E 018°32'0 0.0
2017-Apr-23 03:29N 54°32' E 018°32'0 0.0
2017-Apr-23 02:59N 54°32' E 018°32'0 0.0
2017-Apr-23 02:29N 54°32' E 018°32'0 0.0
2017-Apr-23 01:59N 54°32' E 018°32'0 0.0
2017-Apr-23 01:29N 54°32' E 018°32'0 0.0
2017-Apr-23 00:56N 54°32' E 018°32'0 0.0
2017-Apr-23 00:29N 54°32' E 018°32'0 0.0
2017-Apr-22 23:59N 54°32' E 018°32'0 0.0
2017-Apr-22 23:29N 54°32' E 018°32'0 0.0
2017-Apr-22 22:59N 54°32' E 018°32'0 0.0
2017-Apr-22 22:29N 54°32' E 018°32'0 0.0
2017-Apr-22 21:59N 54°32' E 018°32'0 0.0
2017-Apr-22 21:29N 54°32' E 018°32'0 0.0
2017-Apr-22 20:59N 54°32' E 018°32'0 0.0
2017-Apr-22 20:29N 54°32' E 018°32'0 0.0
2017-Apr-22 19:59N 54°32' E 018°32'0 0.0
2017-Apr-22 19:29N 54°32' E 018°32'0 0.0
2017-Apr-22 18:59N 54°32' E 018°32'0 0.0
2017-Apr-22 18:29N 54°32' E 018°32'0 0.0
2017-Apr-22 17:59N 54°32' E 018°32'0 0.0
2017-Apr-22 17:29N 54°32' E 018°32'0 0.0
2017-Apr-22 16:59N 54°32' E 018°32'0 0.0
2017-Apr-22 16:29N 54°32' E 018°32'0 0.0
2017-Apr-22 15:59N 54°32' E 018°32'0 0.0
2017-Apr-22 15:29N 54°32' E 018°32'0 0.0
2017-Apr-22 14:59N 54°32' E 018°32'0 0.0
2017-Apr-22 14:29N 54°32' E 018°32'0 0.0
2017-Apr-22 13:29N 54°32' E 018°32'0 0.0
2017-Apr-22 12:59N 54°32' E 018°32'0 0.0
2017-Apr-22 12:29N 54°32' E 018°32'0 0.0
2017-Apr-22 11:59N 54°32' E 018°32'0 0.0
2017-Apr-22 11:29N 54°32' E 018°32'0 0.0
2017-Apr-22 10:59N 54°32' E 018°32'0 0.0
2017-Apr-22 10:29N 54°32' E 018°32'0 0.0
2017-Apr-22 09:59N 54°32' E 018°32'0 0.0
2017-Apr-22 09:29N 54°32' E 018°32'0 0.0
2017-Apr-22 08:59N 54°32' E 018°32'0 0.0
2017-Apr-22 08:29N 54°32' E 018°32'0 0.0
2017-Apr-22 07:59N 54°32' E 018°32'0 0.0
2017-Apr-22 07:29N 54°32' E 018°32'0 0.0
2017-Apr-22 06:59N 54°32' E 018°32'0 0.0
2017-Apr-22 06:29N 54°32' E 018°32'0 0.0
2017-Apr-22 05:59N 54°32' E 018°32'0 0.0
2017-Apr-22 05:29N 54°32' E 018°32'0 0.0
2017-Apr-22 04:59N 54°32' E 018°32'0 0.0
2017-Apr-22 04:29N 54°32' E 018°32'0 0.0
2017-Apr-22 03:59N 54°32' E 018°32'0 0.0
2017-Apr-22 03:29N 54°32' E 018°32'0 0.0
2017-Apr-22 02:59N 54°32' E 018°32'0 0.0
2017-Apr-22 02:29N 54°32' E 018°32'0 0.0
2017-Apr-22 01:59N 54°32' E 018°32'0 0.0
2017-Apr-22 01:29N 54°32' E 018°32'0 0.0
2017-Apr-22 00:59N 54°32' E 018°32'0 0.0
2017-Apr-22 00:29N 54°32' E 018°32'0 0.0
2017-Apr-21 23:59N 54°32' E 018°32'0 0.0
2017-Apr-21 23:29N 54°32' E 018°32'0 0.0
2017-Apr-21 22:59N 54°32' E 018°32'0 0.0
2017-Apr-21 22:29N 54°32' E 018°32'0 0.0
2017-Apr-21 21:59N 54°32' E 018°32'0 0.0
2017-Apr-21 21:29N 54°32' E 018°32'0 0.0
2017-Apr-21 20:59N 54°32' E 018°32'0 0.0
2017-Apr-21 20:29N 54°32' E 018°32'0 0.0
2017-Apr-21 19:59N 54°32' E 018°32'0 0.0
2017-Apr-21 19:29N 54°32' E 018°32'0 0.0
2017-Apr-21 18:59N 54°32' E 018°32'0 0.0
2017-Apr-21 18:29N 54°32' E 018°32'0 0.0
2017-Apr-21 17:59N 54°32' E 018°32'0 0.0
2017-Apr-21 17:29N 54°32' E 018°32'0 0.0
2017-Apr-21 16:59N 54°32' E 018°32'0 0.0
2017-Apr-21 16:29N 54°32' E 018°32'0 0.0
2017-Apr-21 15:59N 54°32' E 018°32'0 0.0
2017-Apr-21 15:29N 54°32' E 018°32'0 0.0
2017-Apr-21 14:59N 54°32' E 018°32'0 0.0
2017-Apr-21 14:29N 54°32' E 018°32'0 0.0
2017-Apr-21 13:29N 54°32' E 018°32'0 0.0
2017-Apr-21 12:59N 54°32' E 018°32'0 0.0
2017-Apr-21 12:29N 54°32' E 018°32'0 0.0
2017-Apr-21 11:59N 54°32' E 018°32'0 0.0
2017-Apr-21 11:29N 54°32' E 018°32'0 0.0
2017-Apr-21 10:59N 54°32' E 018°32'0 0.0
2017-Apr-21 10:29N 54°32' E 018°32'0 0.2
2017-Apr-21 09:59N 54°32' E 018°32'0 0.4
2017-Apr-21 09:29N 54°32' E 018°31'0 0.0
2017-Apr-21 08:59N 54°32' E 018°31'0 0.0
2017-Apr-21 08:29N 54°32' E 018°31'0 0.0
2017-Apr-21 07:50N 54°32' E 018°31'0 0.0
2017-Apr-21 07:29N 54°32' E 018°31'0 0.0
2017-Apr-21 06:56N 54°32' E 018°31'0 0.0
2017-Apr-21 06:26N 54°32' E 018°31'0 0.0
2017-Apr-21 05:53N 54°32' E 018°31'0 0.0
2017-Apr-21 05:29N 54°32' E 018°31'0 0.0
2017-Apr-21 04:59N 54°32' E 018°31'0 0.0
2017-Apr-21 04:29N 54°32' E 018°31'0 0.0
2017-Apr-21 03:56N 54°32' E 018°31'0 0.0
2017-Apr-21 03:26N 54°32' E 018°31'0 0.0
2017-Apr-21 02:59N 54°32' E 018°31'0 0.0
2017-Apr-21 02:29N 54°32' E 018°31'0 0.0
2017-Apr-21 01:59N 54°32' E 018°31'0 0.0
2017-Apr-21 01:29N 54°32' E 018°31'0 0.0
2017-Apr-21 00:56N 54°32' E 018°31'0 0.0
2017-Apr-21 00:29N 54°32' E 018°31'0 0.0
2017-Apr-20 23:59N 54°32' E 018°31'0 0.0
2017-Apr-20 23:29N 54°32' E 018°31'0 0.0
2017-Apr-20 22:59N 54°32' E 018°31'0 0.0
2017-Apr-20 22:26N 54°32' E 018°31'0 0.0
2017-Apr-20 21:59N 54°32' E 018°31'0 0.0
2017-Apr-20 21:29N 54°32' E 018°31'0 0.0
2017-Apr-20 20:50N 54°32' E 018°31'0 0.0
2017-Apr-20 20:29N 54°32' E 018°31'0 0.0
2017-Apr-20 19:53N 54°32' E 018°31'0 0.0
2017-Apr-20 19:29N 54°32' E 018°31'0 0.0
2017-Apr-20 18:59N 54°32' E 018°31'0 0.0
2017-Apr-20 18:29N 54°32' E 018°31'0 0.0
2017-Apr-20 17:59N 54°32' E 018°31'0 0.0
2017-Apr-20 17:26N 54°32' E 018°31'0 0.0
2017-Apr-20 16:56N 54°32' E 018°31'0 0.0
2017-Apr-20 16:29N 54°32' E 018°31'0 0.0
2017-Apr-20 15:59N 54°32' E 018°31'0 0.0
2017-Apr-20 15:29N 54°32' E 018°31'0 0.0
2017-Apr-20 14:59N 54°32' E 018°31'0 0.0
2017-Apr-20 14:29N 54°32' E 018°31'0 0.0
2017-Apr-20 13:29N 54°32' E 018°31'0 0.0
2017-Apr-20 12:59N 54°32' E 018°31'0 0.0
2017-Apr-20 12:29N 54°32' E 018°31'0 0.0
2017-Apr-20 11:59N 54°32' E 018°31'0 0.0
2017-Apr-20 11:29N 54°32' E 018°31'0 0.0
2017-Apr-20 10:59N 54°32' E 018°31'0 0.0
2017-Apr-20 10:29N 54°32' E 018°31'0 0.0
2017-Apr-20 09:59N 54°32' E 018°31'0 0.0
2017-Apr-20 09:29N 54°32' E 018°31'0 0.0
2017-Apr-20 08:59N 54°32' E 018°31'0 0.0
2017-Apr-20 08:29N 54°32' E 018°31'0 0.0
2017-Apr-20 07:59N 54°32' E 018°31'0 0.0
2017-Apr-20 07:29N 54°32' E 018°31'0 0.0
2017-Apr-20 06:59N 54°32' E 018°31'0 0.0
2017-Apr-20 06:29N 54°32' E 018°31'  

Dump ship's entire track history